Murphy, Texas
Current Conditions -  °F | °C
As of 4:47 PM on Monday 24 Nov 2014 (Local Time) from KADS Reporting Station
Scattered Clouds Scattered Clouds  
Wind Chill: 59°   Ceiling: Unl
Heat Index: 59°   Visibility: 13mi
Dew Point: 18°   Wind: 9mph
Humidity: 20%   Direction: 270°W
Pressure: 30.05"   Gusts: NA
Location:  33.0274°N, 96.6714°W
Report Text: KADS 242247Z 27008KT 13SM SCT230 15/M08 A3005
Loading
Personal Weather Stations






























Interactive Weather Map New forecast layout! Learn more

10-Day Weather Forecast

Advertisements
Track Severe Weather on mobile